Broad Channel, New York
Current Conditions -  °F | °C
As of 10:51 AM on Friday 28 Nov 2014 (Local Time) from KJFK Reporting Station
Scattered Clouds Scattered Clouds  
Wind Chill: 26°   Ceiling: Unl
Heat Index: 37°   Visibility: 10mi
Dew Point: 18°   Wind: 23mph
Humidity: 46%   Direction: 330°NNW
Pressure: 30.19"   Gusts: 29mph
Location:  40.6184°N, 73.8256°W
Report Text: KJFK 281551Z 33020G25KT 10SM SCT055 03/M08 A3019 RMK AO2 SLP221 T00281078
Loading
Personal Weather Stations






























Interactive Weather Map New forecast layout! Learn more

10-Day Weather Forecast

Advertisements
Track Severe Weather on mobile